• Join FlightAware (Why Join?)
  • Login
  • US Flag 
11:49AM EDT


 

Airport Tracker/Info


-or-


 

Live Flight TrackerFlight Track Log ✈ KAP6 ✈ 15-Mar-2014 ✈ TUPJ / EIS - TJSJ / SJU

Flight Track Log - Related Links

Times and Time Zones

All times are in EDT time to prevent confusion due to time zone crossing. See the KAP6 flight status page for this flight to view local times or setup timezone preferences in your user account.

Time Position Orientation Groundspeed Altitude Reporting Facility
EDT Latitude Longitude Course Direction KTS MPH feet Rate Location/Type
08:05PM 18.5167 -64.5833 317° Northwest 140 161 3,000  Level San Juan Center
08:06PM 18.5167 -64.6167 270° West 160 184 3,900 780 Climbing San Juan Center
08:07PM 18.5167 -64.6667 270° West 150 173 4,600 660 Climbing San Juan Center
08:08PM 18.5167 -64.7000 270° West 160 184 5,300 660 Climbing San Juan Center
08:09PM 18.5167 -64.7500 270° West 160 184 6,000 300 Climbing San Juan Center
08:10PM 18.5000 -64.8000 251° West 170 196 6,000  Level San Juan Center
08:11PM 18.5000 -64.8500 270° West 180 207 6,000  Level San Juan Center
08:12PM 18.5000 -64.9167 270° West 180 207 6,000  Level San Juan Center
08:13PM 18.5000 -64.9667 270° West 190 219 6,000  Level San Juan Center
08:14PM 18.5000 -65.0167 270° West 190 219 6,000  Level San Juan Center
08:15PM 18.5000 -65.0667 270° West 190 219 6,000  Level San Juan Center
08:16PM 18.4833 -65.1167 251° West 190 219 6,000  Level San Juan Center
08:17PM 18.4833 -65.1833 270° West 190 219 6,000  Level San Juan Center
08:18PM 18.4833 -65.2333 270° West 190 219 6,000  Level San Juan Center
08:19PM 18.4833 -65.2833 270° West 190 219 6,000  Level San Juan Center
08:20PM 18.4667 -65.3333 251° West 180 207 6,000  Level San Juan Center
08:21PM 18.4667 -65.3833 270° West 180 207 6,000  Level San Juan Center
08:22PM 18.4667 -65.4333 270° West 170 196 6,000  Level San Juan Center
08:23PM 18.4667 -65.4833 270° West 170 196 6,000 -120 Level San Juan Center
08:24PM 18.4667 -65.5500 270° West 180 207 5,800 -420 Descending San Juan Center
08:25PM 18.4500 -65.6000 251° West 180 207 5,200 -720 Descending San Juan Center
08:26PM 18.4500 -65.6500 270° West 200 230 4,400 -660 Descending San Juan Center
08:27PM 18.4333 -65.7000 251° West 190 219 3,900 -540 Descending San Juan Center
08:28PM 18.4167 -65.7500 251° West 180 207 3,400 -720 Descending San Juan Center
08:29PM 18.4000 -65.8167 255° West 200 230 2,500 -540 Descending San Juan Center
08:30PM 18.3833 -65.8667 251° West 180 207 2,400 -300 Descending San Juan Center
08:31PM 18.4000 -65.9167 289° West 170 196 1,900 -600 Descending San Juan Center
08:32PM 18.4000 -65.9667 270° West 170 196 1,200 -600 Descending San Juan Center
08:33PM 18.4000 -66.0000 270° West 150 173 800 -420 Descending San Juan Center
08:34PM 18.4333 -66.0167 335° Northwest 140 161 400 -420 Descending San Juan Center